Airport View

Enter AWOS ICAO identifier for current METAR.

ex. KFNL

KEWK 192121Z AUTO 15014KT 10SM SCT007 32/26 A2993 RMK AO2

19 Aug 2019 21:35

Frequency: 123.875

Phone: 316-283-8789

Other Area AWOS: K1K1 - KAAO - KBEC - K3AU

TAF KICT 191722Z 1918/2018 17013KT P6SM FEW250 FM200100 16009KT P6SM SCT250 FM201500 17012KT P6SM SCT200